sensor_id;sensor_type;location;lat;lon;timestamp;P1;durP1;ratioP1;P2;durP2;ratioP2
72427;SDS011;60419;48.880;18.036;2023-04-01T00:01:29;6.95;;;3.40;;
72427;SDS011;60419;48.880;18.036;2023-04-01T00:04:14;7.82;;;3.20;;
72427;SDS011;60419;48.880;18.036;2023-04-01T00:07:00;6.38;;;3.67;;
72427;SDS011;60419;48.880;18.036;2023-04-01T00:09:46;6.15;;;3.38;;
72427;SDS011;60419;48.880;18.036;2023-04-01T00:12:32;8.43;;;3.90;;
72427;SDS011;60419;48.880;18.036;2023-04-01T00:15:17;6.28;;;3.47;;
72427;SDS011;60419;48.880;18.036;2023-04-01T00:18:03;8.20;;;3.80;;
72427;SDS011;60419;48.880;18.036;2023-04-01T00:20:49;7.07;;;3.47;;
72427;SDS011;60419;48.880;18.036;2023-04-01T00:23:36;8.13;;;3.28;;
72427;SDS011;60419;48.880;18.036;2023-04-01T00:26:22;5.82;;;2.97;;
72427;SDS011;60419;48.880;18.036;2023-04-01T00:29:07;6.93;;;3.10;;
72427;SDS011;60419;48.880;18.036;2023-04-01T00:31:53;7.07;;;3.03;;
72427;SDS011;60419;48.880;18.036;2023-04-01T00:34:38;6.82;;;3.20;;
72427;SDS011;60419;48.880;18.036;2023-04-01T00:37:25;4.90;;;3.22;;
72427;SDS011;60419;48.880;18.036;2023-04-01T00:40:21;6.72;;;3.35;;
72427;SDS011;60419;48.880;18.036;2023-04-01T00:43:12;7.78;;;3.78;;
72427;SDS011;60419;48.880;18.036;2023-04-01T00:46:06;6.72;;;3.50;;
72427;SDS011;60419;48.880;18.036;2023-04-01T00:48:53;7.65;;;3.78;;
72427;SDS011;60419;48.880;18.036;2023-04-01T00:51:40;9.23;;;4.22;;
72427;SDS011;60419;48.880;18.036;2023-04-01T00:54:28;6.85;;;3.58;;
72427;SDS011;60419;48.880;18.036;2023-04-01T00:57:18;7.35;;;3.67;;
72427;SDS011;60419;48.880;18.036;2023-04-01T01:00:09;7.38;;;3.25;;
72427;SDS011;60419;48.880;18.036;2023-04-01T01:02:58;7.38;;;3.53;;
72427;SDS011;60419;48.880;18.036;2023-04-01T01:09:12;6.78;;;3.63;;
72427;SDS011;60419;48.880;18.036;2023-04-01T01:35:59;6.43;;;3.88;;
72427;SDS011;60419;48.880;18.036;2023-04-01T01:38:49;6.57;;;3.47;;
72427;SDS011;60419;48.880;18.036;2023-04-01T01:41:36;6.95;;;3.30;;
72427;SDS011;60419;48.880;18.036;2023-04-01T01:44:25;4.57;;;2.75;;
72427;SDS011;60419;48.880;18.036;2023-04-01T01:47:13;8.10;;;3.50;;
72427;SDS011;60419;48.880;18.036;2023-04-01T01:50:00;6.95;;;3.20;;
72427;SDS011;60419;48.880;18.036;2023-04-01T01:52:46;5.07;;;3.08;;
72427;SDS011;60419;48.880;18.036;2023-04-01T01:55:32;5.32;;;3.15;;
72427;SDS011;60419;48.880;18.036;2023-04-01T02:01:12;6.25;;;3.15;;
72427;SDS011;60419;48.880;18.036;2023-04-01T02:04:01;4.93;;;2.90;;
72427;SDS011;60419;48.880;18.036;2023-04-01T02:06:50;5.10;;;2.90;;
72427;SDS011;60419;48.880;18.036;2023-04-01T02:09:40;6.20;;;3.05;;
72427;SDS011;60419;48.880;18.036;2023-04-01T02:12:26;6.57;;;3.15;;
72427;SDS011;60419;48.880;18.036;2023-04-01T02:15:13;4.93;;;2.90;;
72427;SDS011;60419;48.880;18.036;2023-04-01T02:18:01;7.25;;;3.15;;
72427;SDS011;60419;48.880;18.036;2023-04-01T02:20:48;5.75;;;2.72;;
72427;SDS011;60419;48.880;18.036;2023-04-01T02:23:35;4.75;;;2.80;;
72427;SDS011;60419;48.880;18.036;2023-04-01T02:26:22;6.18;;;3.17;;
72427;SDS011;60419;48.880;18.036;2023-04-01T02:29:10;5.03;;;2.60;;
72427;SDS011;60419;48.880;18.036;2023-04-01T02:31:57;5.45;;;2.72;;
72427;SDS011;60419;48.880;18.036;2023-04-01T02:34:43;4.53;;;2.72;;
72427;SDS011;60419;48.880;18.036;2023-04-01T02:37:29;6.03;;;2.80;;
72427;SDS011;60419;48.880;18.036;2023-04-01T02:40:15;5.68;;;2.33;;
72427;SDS011;60419;48.880;18.036;2023-04-01T02:43:01;5.35;;;2.60;;
72427;SDS011;60419;48.880;18.036;2023-04-01T02:45:47;5.68;;;2.22;;
72427;SDS011;60419;48.880;18.036;2023-04-01T02:48:32;4.57;;;1.83;;
72427;SDS011;60419;48.880;18.036;2023-04-01T02:51:18;4.97;;;2.00;;
72427;SDS011;60419;48.880;18.036;2023-04-01T02:54:04;4.10;;;1.95;;
72427;SDS011;60419;48.880;18.036;2023-04-01T02:56:49;3.92;;;1.63;;
72427;SDS011;60419;48.880;18.036;2023-04-01T02:59:34;5.70;;;2.20;;
72427;SDS011;60419;48.880;18.036;2023-04-01T03:02:20;5.55;;;2.20;;
72427;SDS011;60419;48.880;18.036;2023-04-01T03:05:05;5.40;;;2.38;;
72427;SDS011;60419;48.880;18.036;2023-04-01T03:07:52;6.10;;;2.58;;
72427;SDS011;60419;48.880;18.036;2023-04-01T03:10:37;5.20;;;2.53;;
72427;SDS011;60419;48.880;18.036;2023-04-01T03:13:22;6.55;;;3.20;;
72427;SDS011;60419;48.880;18.036;2023-04-01T03:16:08;4.45;;;2.72;;
72427;SDS011;60419;48.880;18.036;2023-04-01T03:18:53;4.63;;;2.15;;
72427;SDS011;60419;48.880;18.036;2023-04-01T03:21:41;5.80;;;2.95;;
72427;SDS011;60419;48.880;18.036;2023-04-01T03:24:27;5.47;;;2.90;;
72427;SDS011;60419;48.880;18.036;2023-04-01T03:27:12;5.40;;;2.70;;
72427;SDS011;60419;48.880;18.036;2023-04-01T03:29:57;6.82;;;3.85;;
72427;SDS011;60419;48.880;18.036;2023-04-01T03:32:43;7.10;;;3.35;;
72427;SDS011;60419;48.880;18.036;2023-04-01T03:35:28;8.43;;;2.97;;
72427;SDS011;60419;48.880;18.036;2023-04-01T03:38:14;8.15;;;2.88;;
72427;SDS011;60419;48.880;18.036;2023-04-01T03:41:00;5.70;;;2.80;;
72427;SDS011;60419;48.880;18.036;2023-04-01T03:43:46;5.53;;;2.67;;
72427;SDS011;60419;48.880;18.036;2023-04-01T03:46:31;9.05;;;3.05;;
72427;SDS011;60419;48.880;18.036;2023-04-01T03:49:17;4.28;;;2.60;;
72427;SDS011;60419;48.880;18.036;2023-04-01T03:52:03;7.05;;;2.80;;
72427;SDS011;60419;48.880;18.036;2023-04-01T03:54:48;5.82;;;2.33;;
72427;SDS011;60419;48.880;18.036;2023-04-01T03:57:34;4.95;;;2.40;;
72427;SDS011;60419;48.880;18.036;2023-04-01T04:00:19;6.95;;;2.80;;
72427;SDS011;60419;48.880;18.036;2023-04-01T04:03:05;7.50;;;3.00;;
72427;SDS011;60419;48.880;18.036;2023-04-01T04:05:51;6.38;;;2.75;;
72427;SDS011;60419;48.880;18.036;2023-04-01T04:08:36;6.10;;;3.00;;
72427;SDS011;60419;48.880;18.036;2023-04-01T04:11:22;4.82;;;2.70;;
72427;SDS011;60419;48.880;18.036;2023-04-01T04:14:07;6.78;;;2.78;;
72427;SDS011;60419;48.880;18.036;2023-04-01T04:16:53;5.68;;;2.80;;
72427;SDS011;60419;48.880;18.036;2023-04-01T04:19:38;5.43;;;2.50;;
72427;SDS011;60419;48.880;18.036;2023-04-01T04:22:24;5.90;;;2.38;;
72427;SDS011;60419;48.880;18.036;2023-04-01T04:25:09;4.70;;;2.63;;
72427;SDS011;60419;48.880;18.036;2023-04-01T04:27:55;3.90;;;2.25;;
72427;SDS011;60419;48.880;18.036;2023-04-01T04:30:40;5.00;;;2.78;;
72427;SDS011;60419;48.880;18.036;2023-04-01T04:33:26;6.05;;;2.35;;
72427;SDS011;60419;48.880;18.036;2023-04-01T04:36:11;7.05;;;2.30;;
72427;SDS011;60419;48.880;18.036;2023-04-01T04:38:57;4.75;;;2.38;;
72427;SDS011;60419;48.880;18.036;2023-04-01T04:41:46;5.97;;;2.22;;
72427;SDS011;60419;48.880;18.036;2023-04-01T04:44:32;6.47;;;1.98;;
72427;SDS011;60419;48.880;18.036;2023-04-01T04:47:17;3.75;;;1.92;;
72427;SDS011;60419;48.880;18.036;2023-04-01T04:50:02;4.65;;;1.60;;
72427;SDS011;60419;48.880;18.036;2023-04-01T04:52:48;3.47;;;1.73;;
72427;SDS011;60419;48.880;18.036;2023-04-01T04:55:34;2.75;;;1.33;;
72427;SDS011;60419;48.880;18.036;2023-04-01T04:58:19;3.05;;;1.50;;
72427;SDS011;60419;48.880;18.036;2023-04-01T05:01:06;2.38;;;1.15;;
72427;SDS011;60419;48.880;18.036;2023-04-01T05:03:56;2.63;;;1.13;;
72427;SDS011;60419;48.880;18.036;2023-04-01T05:06:42;4.55;;;1.33;;
72427;SDS011;60419;48.880;18.036;2023-04-01T05:09:29;2.97;;;1.20;;
72427;SDS011;60419;48.880;18.036;2023-04-01T05:12:16;2.95;;;1.10;;
72427;SDS011;60419;48.880;18.036;2023-04-01T05:15:03;2.38;;;1.10;;
72427;SDS011;60419;48.880;18.036;2023-04-01T05:17:50;3.95;;;1.27;;
72427;SDS011;60419;48.880;18.036;2023-04-01T05:20:35;4.20;;;1.30;;
72427;SDS011;60419;48.880;18.036;2023-04-01T05:23:21;3.40;;;1.08;;
72427;SDS011;60419;48.880;18.036;2023-04-01T05:26:08;3.17;;;1.10;;
72427;SDS011;60419;48.880;18.036;2023-04-01T05:28:56;2.58;;;1.10;;
72427;SDS011;60419;48.880;18.036;2023-04-01T05:31:41;2.40;;;1.27;;
72427;SDS011;60419;48.880;18.036;2023-04-01T05:34:27;2.75;;;1.05;;
72427;SDS011;60419;48.880;18.036;2023-04-01T05:37:13;5.35;;;1.35;;
72427;SDS011;60419;48.880;18.036;2023-04-01T05:39:58;2.25;;;1.00;;
72427;SDS011;60419;48.880;18.036;2023-04-01T05:42:44;2.63;;;1.00;;
72427;SDS011;60419;48.880;18.036;2023-04-01T05:45:29;2.97;;;0.90;;
72427;SDS011;60419;48.880;18.036;2023-04-01T05:48:15;3.90;;;1.42;;
72427;SDS011;60419;48.880;18.036;2023-04-01T05:51:01;5.20;;;2.70;;
72427;SDS011;60419;48.880;18.036;2023-04-01T05:53:47;3.00;;;1.20;;
72427;SDS011;60419;48.880;18.036;2023-04-01T05:56:32;4.28;;;1.20;;
72427;SDS011;60419;48.880;18.036;2023-04-01T05:59:17;3.05;;;1.08;;
72427;SDS011;60419;48.880;18.036;2023-04-01T06:02:03;4.35;;;1.65;;
72427;SDS011;60419;48.880;18.036;2023-04-01T06:04:49;2.15;;;1.00;;
72427;SDS011;60419;48.880;18.036;2023-04-01T06:07:34;3.17;;;1.13;;
72427;SDS011;60419;48.880;18.036;2023-04-01T06:10:20;2.22;;;0.98;;
72427;SDS011;60419;48.880;18.036;2023-04-01T06:13:51;3.70;;;1.25;;
72427;SDS011;60419;48.880;18.036;2023-04-01T06:19:50;3.72;;;1.30;;
72427;SDS011;60419;48.880;18.036;2023-04-01T06:23:14;4.45;;;1.60;;
72427;SDS011;60419;48.880;18.036;2023-04-01T06:29:16;3.78;;;1.60;;
72427;SDS011;60419;48.880;18.036;2023-04-01T06:53:47;2.15;;;0.90;;
72427;SDS011;60419;48.880;18.036;2023-04-01T06:56:50;1.15;;;0.60;;
72427;SDS011;60419;48.880;18.036;2023-04-01T06:59:43;1.75;;;0.73;;
72427;SDS011;60419;48.880;18.036;2023-04-01T07:02:32;1.10;;;0.80;;
72427;SDS011;60419;48.880;18.036;2023-04-01T07:05:24;2.33;;;0.80;;
72427;SDS011;60419;48.880;18.036;2023-04-01T07:08:21;3.10;;;0.90;;
72427;SDS011;60419;48.880;18.036;2023-04-01T07:11:11;2.60;;;0.80;;
72427;SDS011;60419;48.880;18.036;2023-04-01T07:14:13;2.17;;;0.95;;
72427;SDS011;60419;48.880;18.036;2023-04-01T07:17:50;1.58;;;0.60;;
72427;SDS011;60419;48.880;18.036;2023-04-01T07:23:17;1.60;;;0.70;;
72427;SDS011;60419;48.880;18.036;2023-04-01T07:26:14;2.05;;;0.80;;
72427;SDS011;60419;48.880;18.036;2023-04-01T07:29:11;1.90;;;0.82;;
72427;SDS011;60419;48.880;18.036;2023-04-01T07:32:17;1.42;;;0.70;;
72427;SDS011;60419;48.880;18.036;2023-04-01T07:38:11;1.52;;;0.75;;
72427;SDS011;60419;48.880;18.036;2023-04-01T07:44:33;1.85;;;0.90;;
72427;SDS011;60419;48.880;18.036;2023-04-01T07:50:48;1.47;;;0.80;;
72427;SDS011;60419;48.880;18.036;2023-04-01T07:56:41;2.72;;;0.93;;
72427;SDS011;60419;48.880;18.036;2023-04-01T08:12:21;4.28;;;1.08;;
72427;SDS011;60419;48.880;18.036;2023-04-01T08:15:26;2.63;;;1.00;;
72427;SDS011;60419;48.880;18.036;2023-04-01T08:21:25;5.45;;;1.55;;
72427;SDS011;60419;48.880;18.036;2023-04-01T08:27:03;1.90;;;1.00;;
72427;SDS011;60419;48.880;18.036;2023-04-01T08:29:58;2.47;;;0.95;;
72427;SDS011;60419;48.880;18.036;2023-04-01T08:32:48;2.90;;;1.10;;
72427;SDS011;60419;48.880;18.036;2023-04-01T08:35:47;3.85;;;1.20;;
72427;SDS011;60419;48.880;18.036;2023-04-01T08:38:54;2.78;;;0.90;;
72427;SDS011;60419;48.880;18.036;2023-04-01T08:45:03;2.60;;;1.00;;
72427;SDS011;60419;48.880;18.036;2023-04-01T09:00:31;2.72;;;0.85;;
72427;SDS011;60419;48.880;18.036;2023-04-01T09:03:33;2.72;;;0.90;;
72427;SDS011;60419;48.880;18.036;2023-04-01T09:09:40;1.35;;;0.70;;
72427;SDS011;60419;48.880;18.036;2023-04-01T09:21:28;3.25;;;1.30;;
72427;SDS011;60419;48.880;18.036;2023-04-01T09:24:56;2.85;;;1.20;;
72427;SDS011;60419;48.880;18.036;2023-04-01T09:28:20;2.67;;;1.30;;
72427;SDS011;60419;48.880;18.036;2023-04-01T09:43:58;4.07;;;1.15;;
72427;SDS011;60419;48.880;18.036;2023-04-01T09:50:32;4.68;;;1.20;;
72427;SDS011;60419;48.880;18.036;2023-04-01T10:46:21;3.33;;;1.23;;
72427;SDS011;60419;48.880;18.036;2023-04-01T10:52:23;2.40;;;1.00;;
72427;SDS011;60419;48.880;18.036;2023-04-01T10:55:25;3.10;;;1.00;;
72427;SDS011;60419;48.880;18.036;2023-04-01T11:20:37;2.78;;;1.08;;
72427;SDS011;60419;48.880;18.036;2023-04-01T11:32:36;2.80;;;1.25;;
72427;SDS011;60419;48.880;18.036;2023-04-01T11:35:29;2.55;;;1.15;;
72427;SDS011;60419;48.880;18.036;2023-04-01T11:41:58;3.50;;;1.40;;
72427;SDS011;60419;48.880;18.036;2023-04-01T11:54:23;1.73;;;0.85;;
72427;SDS011;60419;48.880;18.036;2023-04-01T12:00:44;5.15;;;1.40;;
72427;SDS011;60419;48.880;18.036;2023-04-01T12:16:19;2.00;;;1.05;;
72427;SDS011;60419;48.880;18.036;2023-04-01T12:19:15;2.72;;;1.00;;
72427;SDS011;60419;48.880;18.036;2023-04-01T12:22:17;3.08;;;1.17;;
72427;SDS011;60419;48.880;18.036;2023-04-01T12:25:14;2.78;;;1.23;;
72427;SDS011;60419;48.880;18.036;2023-04-01T13:01:44;2.05;;;0.90;;
72427;SDS011;60419;48.880;18.036;2023-04-01T13:11:31;2.67;;;1.27;;
72427;SDS011;60419;48.880;18.036;2023-04-01T13:26:25;2.33;;;0.83;;
72427;SDS011;60419;48.880;18.036;2023-04-01T13:29:20;2.45;;;0.90;;
72427;SDS011;60419;48.880;18.036;2023-04-01T13:35:08;1.75;;;1.10;;
72427;SDS011;60419;48.880;18.036;2023-04-01T13:41:43;1.60;;;0.80;;
72427;SDS011;60419;48.880;18.036;2023-04-01T13:44:19;1.98;;;0.70;;
72427;SDS011;60419;48.880;18.036;2023-04-01T14:20:40;3.03;;;1.02;;
72427;SDS011;60419;48.880;18.036;2023-04-01T14:26:52;1.88;;;1.00;;
72427;SDS011;60419;48.880;18.036;2023-04-01T14:30:19;1.80;;;0.90;;
72427;SDS011;60419;48.880;18.036;2023-04-01T14:33:26;3.33;;;1.20;;
72427;SDS011;60419;48.880;18.036;2023-04-01T14:36:29;2.38;;;0.82;;
72427;SDS011;60419;48.880;18.036;2023-04-01T14:58:13;2.95;;;1.05;;
72427;SDS011;60419;48.880;18.036;2023-04-01T15:01:17;3.88;;;1.20;;
72427;SDS011;60419;48.880;18.036;2023-04-01T15:41:14;2.65;;;1.20;;
72427;SDS011;60419;48.880;18.036;2023-04-01T15:46:48;4.50;;;1.30;;
72427;SDS011;60419;48.880;18.036;2023-04-01T15:49:39;1.88;;;1.10;;
72427;SDS011;60419;48.880;18.036;2023-04-01T15:52:43;2.45;;;1.10;;
72427;SDS011;60419;48.880;18.036;2023-04-01T15:55:57;3.00;;;1.20;;
72427;SDS011;60419;48.880;18.036;2023-04-01T15:59:00;3.72;;;1.92;;
72427;SDS011;60419;48.880;18.036;2023-04-01T16:01:59;4.63;;;2.45;;
72427;SDS011;60419;48.880;18.036;2023-04-01T16:04:58;4.10;;;1.77;;
72427;SDS011;60419;48.880;18.036;2023-04-01T16:14:59;2.17;;;1.30;;
72427;SDS011;60419;48.880;18.036;2023-04-01T16:24:10;2.50;;;1.00;;
72427;SDS011;60419;48.880;18.036;2023-04-01T16:27:10;1.92;;;1.27;;
72427;SDS011;60419;48.880;18.036;2023-04-01T16:30:01;3.53;;;1.30;;
72427;SDS011;60419;48.880;18.036;2023-04-01T16:36:35;2.03;;;1.10;;
72427;SDS011;60419;48.880;18.036;2023-04-01T16:39:28;4.18;;;1.48;;
72427;SDS011;60419;48.880;18.036;2023-04-01T16:45:30;4.35;;;1.70;;
72427;SDS011;60419;48.880;18.036;2023-04-01T16:48:22;3.70;;;1.60;;
72427;SDS011;60419;48.880;18.036;2023-04-01T16:51:13;3.85;;;1.48;;
72427;SDS011;60419;48.880;18.036;2023-04-01T16:54:05;3.05;;;1.25;;
72427;SDS011;60419;48.880;18.036;2023-04-01T16:57:01;3.67;;;1.50;;
72427;SDS011;60419;48.880;18.036;2023-04-01T16:59:53;3.35;;;1.88;;
72427;SDS011;60419;48.880;18.036;2023-04-01T17:15:11;4.07;;;1.27;;
72427;SDS011;60419;48.880;18.036;2023-04-01T17:18:19;3.05;;;1.35;;
72427;SDS011;60419;48.880;18.036;2023-04-01T17:42:40;7.30;;;2.60;;
72427;SDS011;60419;48.880;18.036;2023-04-01T17:48:49;14.93;;;8.45;;
72427;SDS011;60419;48.880;18.036;2023-04-01T17:51:53;5.53;;;3.10;;
72427;SDS011;60419;48.880;18.036;2023-04-01T17:54:54;6.07;;;2.95;;
72427;SDS011;60419;48.880;18.036;2023-04-01T17:58:17;3.88;;;1.92;;
72427;SDS011;60419;48.880;18.036;2023-04-01T18:04:12;5.38;;;3.30;;
72427;SDS011;60419;48.880;18.036;2023-04-01T18:07:13;4.90;;;2.60;;
72427;SDS011;60419;48.880;18.036;2023-04-01T18:16:22;2.90;;;1.70;;
72427;SDS011;60419;48.880;18.036;2023-04-01T18:19:18;4.75;;;2.10;;
72427;SDS011;60419;48.880;18.036;2023-04-01T18:22:36;4.40;;;2.20;;
72427;SDS011;60419;48.880;18.036;2023-04-01T18:31:35;6.90;;;4.30;;
72427;SDS011;60419;48.880;18.036;2023-04-01T18:40:51;7.90;;;4.95;;
72427;SDS011;60419;48.880;18.036;2023-04-01T18:56:22;6.78;;;4.03;;
72427;SDS011;60419;48.880;18.036;2023-04-01T18:59:12;7.63;;;4.00;;
72427;SDS011;60419;48.880;18.036;2023-04-01T19:02:40;14.82;;;5.80;;
72427;SDS011;60419;48.880;18.036;2023-04-01T19:05:32;10.88;;;6.63;;
72427;SDS011;60419;48.880;18.036;2023-04-01T19:14:18;12.02;;;7.07;;
72427;SDS011;60419;48.880;18.036;2023-04-01T19:47:50;14.82;;;8.55;;
72427;SDS011;60419;48.880;18.036;2023-04-01T19:51:00;24.63;;;14.38;;
72427;SDS011;60419;48.880;18.036;2023-04-01T20:11:51;25.40;;;13.90;;
72427;SDS011;60419;48.880;18.036;2023-04-01T20:14:51;21.42;;;12.48;;
72427;SDS011;60419;48.880;18.036;2023-04-01T20:17:41;21.08;;;11.73;;
72427;SDS011;60419;48.880;18.036;2023-04-01T20:20:31;19.77;;;11.05;;
72427;SDS011;60419;48.880;18.036;2023-04-01T20:23:40;25.52;;;13.52;;
72427;SDS011;60419;48.880;18.036;2023-04-01T20:26:29;22.20;;;11.27;;
72427;SDS011;60419;48.880;18.036;2023-04-01T20:29:24;16.40;;;9.48;;
72427;SDS011;60419;48.880;18.036;2023-04-01T20:41:56;12.38;;;6.70;;
72427;SDS011;60419;48.880;18.036;2023-04-01T20:51:14;10.93;;;6.60;;
72427;SDS011;60419;48.880;18.036;2023-04-01T20:57:24;10.15;;;5.30;;
72427;SDS011;60419;48.880;18.036;2023-04-01T21:00:37;10.63;;;6.40;;
72427;SDS011;60419;48.880;18.036;2023-04-01T21:03:29;12.88;;;6.25;;
72427;SDS011;60419;48.880;18.036;2023-04-01T21:09:17;11.73;;;7.35;;
72427;SDS011;60419;48.880;18.036;2023-04-01T21:21:56;11.18;;;6.38;;
72427;SDS011;60419;48.880;18.036;2023-04-01T21:31:30;12.52;;;7.32;;
72427;SDS011;60419;48.880;18.036;2023-04-01T21:34:40;12.02;;;6.35;;
72427;SDS011;60419;48.880;18.036;2023-04-01T21:40:29;10.88;;;6.82;;
72427;SDS011;60419;48.880;18.036;2023-04-01T21:49:44;10.15;;;6.18;;
72427;SDS011;60419;48.880;18.036;2023-04-01T22:13:17;12.85;;;6.78;;
72427;SDS011;60419;48.880;18.036;2023-04-01T22:22:30;10.93;;;7.15;;
72427;SDS011;60419;48.880;18.036;2023-04-01T22:28:29;12.25;;;7.78;;
72427;SDS011;60419;48.880;18.036;2023-04-01T22:31:19;13.95;;;7.82;;
72427;SDS011;60419;48.880;18.036;2023-04-01T22:34:16;11.70;;;5.68;;
72427;SDS011;60419;48.880;18.036;2023-04-01T22:37:49;14.25;;;6.82;;
72427;SDS011;60419;48.880;18.036;2023-04-01T22:40:53;10.73;;;6.32;;
72427;SDS011;60419;48.880;18.036;2023-04-01T22:43:45;9.40;;;5.95;;
72427;SDS011;60419;48.880;18.036;2023-04-01T22:46:48;9.05;;;5.07;;
72427;SDS011;60419;48.880;18.036;2023-04-01T22:49:46;8.95;;;5.00;;
72427;SDS011;60419;48.880;18.036;2023-04-01T22:52:47;9.30;;;5.55;;
72427;SDS011;60419;48.880;18.036;2023-04-01T22:55:38;10.73;;;5.35;;
72427;SDS011;60419;48.880;18.036;2023-04-01T22:58:33;8.07;;;4.97;;
72427;SDS011;60419;48.880;18.036;2023-04-01T23:01:27;9.65;;;6.63;;
72427;SDS011;60419;48.880;18.036;2023-04-01T23:04:19;9.48;;;6.00;;
72427;SDS011;60419;48.880;18.036;2023-04-01T23:10:49;10.50;;;5.90;;
72427;SDS011;60419;48.880;18.036;2023-04-01T23:13:54;12.02;;;6.05;;
72427;SDS011;60419;48.880;18.036;2023-04-01T23:16:43;11.18;;;7.30;;
72427;SDS011;60419;48.880;18.036;2023-04-01T23:25:52;16.97;;;10.13;;
72427;SDS011;60419;48.880;18.036;2023-04-01T23:34:30;14.23;;;8.88;;
72427;SDS011;60419;48.880;18.036;2023-04-01T23:37:18;16.98;;;9.07;;
72427;SDS011;60419;48.880;18.036;2023-04-01T23:40:06;12.52;;;7.43;;
72427;SDS011;60419;48.880;18.036;2023-04-01T23:42:58;11.48;;;8.18;;
72427;SDS011;60419;48.880;18.036;2023-04-01T23:45:43;12.30;;;7.95;;
72427;SDS011;60419;48.880;18.036;2023-04-01T23:48:30;10.93;;;6.07;;
72427;SDS011;60419;48.880;18.036;2023-04-01T23:51:18;10.43;;;6.25;;
72427;SDS011;60419;48.880;18.036;2023-04-01T23:54:15;13.57;;;9.18;;
72427;SDS011;60419;48.880;18.036;2023-04-01T23:57:04;15.35;;;9.55;;
